Time;durP1;ratioP1;P1;durP2;ratioP2;P2;SDS_P1;SDS_P2;PMS_P1;PMS_P2;Temp;Humidity;BMP_temperature;BMP_pressure;BME280_temperature;BME280_humidity;BME280_pressure;Samples;Min_cycle;Max_cycle;Signal;HPM_P1;HPM_P2
2023/07/07 00:01:51;;;;;;;0.80;0.60;;;23.60;47.20;;;;;;5012794;28;20503;-74
2023/07/07 00:04:17;;;;;;;0.98;0.82;;;23.60;47.20;;;;;;5013809;28;20132;-73
2023/07/07 00:06:44;;;;;;;0.82;0.60;;;23.60;47.20;;;;;;5014316;28;20053;-73
2023/07/07 00:09:10;;;;;;;0.90;0.77;;;23.60;47.20;;;;;;5014374;28;20018;-74
2023/07/07 00:11:36;;;;;;;1.25;0.95;;;23.60;47.20;;;;;;5014525;28;20077;-73
2023/07/07 00:14:03;;;;;;;1.48;0.80;;;23.60;47.80;;;;;;5014130;28;20353;-73
2023/07/07 00:16:29;;;;;;;1.48;0.80;;;23.60;47.10;;;;;;5014178;28;20053;-73
2023/07/07 00:18:56;;;;;;;1.00;0.70;;;23.60;47.20;;;;;;5013863;28;20461;-74
2023/07/07 00:21:24;;;;;;;1.88;0.93;;;23.60;47.80;;;;;;5013792;28;20041;-72
2023/07/07 00:23:54;;;;;;;1.15;0.77;;;23.60;47.20;;;;;;5013790;28;20381;-73
2023/07/07 00:26:23;;;;;;;1.50;0.88;;;23.50;47.10;;;;;;5013941;28;20021;-72
2023/07/07 00:28:49;;;;;;;0.63;0.60;;;23.50;47.20;;;;;;5013837;28;20041;-72
2023/07/07 00:31:17;;;;;;;0.82;0.55;;;23.50;47.10;;;;;;5013907;28;20018;-72
2023/07/07 00:33:43;;;;;;;1.88;0.90;;;23.50;47.20;;;;;;5013673;28;20022;-72
2023/07/07 00:36:09;;;;;;;0.80;0.80;;;23.50;47.20;;;;;;5013921;28;20022;-72
2023/07/07 00:38:35;;;;;;;0.80;0.70;;;23.50;47.20;;;;;;5014016;28;20026;-72
2023/07/07 00:41:03;;;;;;;1.25;0.80;;;23.50;47.20;;;;;;5013635;28;20037;-72
2023/07/07 00:43:30;;;;;;;0.90;0.70;;;23.50;47.20;;;;;;5013670;28;20445;-72
2023/07/07 00:45:57;;;;;;;1.10;0.90;;;23.50;47.20;;;;;;5013364;28;20036;-73
2023/07/07 00:48:25;;;;;;;0.75;0.70;;;23.40;47.20;;;;;;5013576;28;20022;-73
2023/07/07 00:50:55;;;;;;;0.90;0.70;;;23.40;47.10;;;;;;5013747;28;20103;-76
2023/07/07 00:53:22;;;;;;;0.70;0.57;;;23.40;47.10;;;;;;5013586;28;20037;-75
2023/07/07 00:56:05;;;;;;;1.30;0.75;;;23.40;47.10;;;;;;5013195;28;20037;-75
2023/07/07 00:58:35;;;;;;;1.25;0.70;;;23.40;47.00;;;;;;5013264;28;20046;-75
2023/07/07 01:01:12;;;;;;;2.15;0.55;;;23.30;63.80;;;;;;5013069;28;20510;-75
2023/07/07 01:03:58;;;;;;;1.42;0.80;;;23.30;47.10;;;;;;5013106;28;20037;-74
2023/07/07 01:06:31;;;;;;;1.60;0.90;;;23.40;47.10;;;;;;5013263;28;20424;-75
2023/07/07 01:09:00;;;;;;;0.68;0.68;;;23.30;47.10;;;;;;5013711;28;20046;-75
2023/07/07 01:11:30;;;;;;;0.93;0.80;;;22.90;46.90;;;;;;5013098;28;20392;-75
2023/07/07 01:13:57;;;;;;;1.83;0.80;;;23.30;47.10;;;;;;5012300;28;20109;-75
2023/07/07 01:16:45;;;;;;;0.80;0.65;;;23.30;47.20;;;;;;5012778;28;20479;-75
2023/07/07 01:19:37;;;;;;;0.68;0.60;;;23.50;64.40;;;;;;5012731;28;20030;-75
2023/07/07 01:22:09;;;;;;;1.20;0.70;;;23.30;47.20;;;;;;5012821;28;20030;-76
2023/07/07 01:25:03;;;;;;;0.95;0.63;;;23.30;47.20;;;;;;5012881;28;20428;-75
2023/07/07 01:27:46;;;;;;;0.90;0.50;;;23.20;47.10;;;;;;5012575;28;20030;-75
2023/07/07 01:30:24;;;;;;;0.90;0.77;;;23.20;47.10;;;;;;5012517;28;20022;-75
2023/07/07 01:32:52;;;;;;;1.63;0.60;;;23.20;47.10;;;;;;5012714;28;20534;-75
2023/07/07 01:35:22;;;;;;;1.25;0.70;;;23.20;47.70;;;;;;5011127;28;20034;-75
2023/07/07 01:37:55;;;;;;;;;;;23.20;47.10;;;;;;5012778;28;20030;-72
2023/07/07 01:40:26;;;;;;;1.08;0.90;;;23.20;47.10;;;;;;5012287;28;19916;-72
2023/07/07 01:42:57;;;;;;;0.95;0.70;;;23.10;47.10;;;;;;5012589;28;20444;-73
2023/07/07 01:45:26;;;;;;;;;;;23.10;47.10;;;;;;5012786;28;20084;-73
2023/07/07 01:48:00;;;;;;;1.85;0.77;;;23.10;47.10;;;;;;5012892;28;19906;-75
2023/07/07 01:50:30;;;;;;;1.00;0.70;;;23.10;47.10;;;;;;5012508;28;20049;-75
2023/07/07 01:53:02;;;;;;;1.00;1.00;;;23.10;47.10;;;;;;5012601;28;20033;-75
2023/07/07 01:55:32;;;;;;;0.98;0.70;;;23.10;47.10;;;;;;5012374;28;20030;-75
2023/07/07 01:58:05;;;;;;;0.68;0.55;;;23.10;47.10;;;;;;5011977;28;20022;-75
2023/07/07 02:00:32;;;;;;;1.45;0.73;;;23.10;47.10;;;;;;5011811;28;20038;-74
2023/07/07 02:02:59;;;;;;;0.65;0.47;;;23.10;47.20;;;;;;5011892;28;20064;-75
2023/07/07 02:05:26;;;;;;;0.60;0.60;;;23.00;47.90;;;;;;5012265;28;20530;-75
2023/07/07 02:07:52;;;;;;;0.98;0.88;;;23.00;47.20;;;;;;5012231;28;20384;-75
2023/07/07 02:10:19;;;;;;;0.88;0.70;;;23.00;47.20;;;;;;5012163;28;20022;-75
2023/07/07 02:12:45;;;;;;;1.88;0.80;;;23.00;47.20;;;;;;5011996;28;20025;-75
2023/07/07 02:15:11;;;;;;;0.50;0.50;;;23.00;47.20;;;;;;5011763;28;20028;-75
2023/07/07 02:17:38;;;;;;;0.82;0.70;;;23.00;47.20;;;;;;5011647;28;20029;-72
2023/07/07 02:20:05;;;;;;;0.65;0.63;;;23.00;47.20;;;;;;5011853;28;20037;-72
2023/07/07 02:22:31;;;;;;;0.85;0.70;;;23.00;47.20;;;;;;5011654;28;20045;-72
2023/07/07 02:24:57;;;;;;;1.55;0.70;;;23.00;47.20;;;;;;5011328;28;20361;-73
2023/07/07 02:27:22;;;;;;;1.80;1.00;;;23.00;47.20;;;;;;5010433;28;20018;-72
2023/07/07 02:29:48;;;;;;;1.00;0.73;;;23.00;47.20;;;;;;5011566;28;20033;-72
2023/07/07 02:32:15;;;;;;;0.77;0.75;;;22.90;47.20;;;;;;5011960;28;20018;-73
2023/07/07 02:34:48;;;;;;;1.42;1.05;;;22.90;47.20;;;;;;5011835;28;20374;-74
2023/07/07 02:37:18;;;;;;;1.10;0.90;;;23.50;47.50;;;;;;5011707;28;20026;-75
2023/07/07 02:39:44;;;;;;;1.63;1.02;;;22.90;47.30;;;;;;5011185;28;20132;-75
2023/07/07 02:42:11;;;;;;;1.17;0.70;;;22.90;47.30;;;;;;5009921;28;20485;-75
2023/07/07 02:44:37;;;;;;;1.20;1.10;;;22.90;47.20;;;;;;5011332;28;20026;-72
2023/07/07 02:47:04;;;;;;;0.80;0.60;;;22.90;47.20;;;;;;5011215;28;20042;-72
2023/07/07 02:49:30;;;;;;;1.60;0.90;;;;;;;;;;5011185;28;20022;-72
2023/07/07 02:51:56;;;;;;;1.63;0.88;;;22.80;46.70;;;;;;5011520;28;20030;-72
2023/07/07 02:54:22;;;;;;;1.23;0.70;;;22.80;48.00;;;;;;5011294;28;20091;-72
2023/07/07 02:56:48;;;;;;;2.20;1.10;;;22.80;47.30;;;;;;5011146;28;20451;-72
2023/07/07 02:59:13;;;;;;;1.30;0.85;;;22.90;47.30;;;;;;5011497;28;20025;-72
2023/07/07 03:01:43;;;;;;;0.88;0.70;;;22.80;47.30;;;;;;5011630;28;20041;-72
2023/07/07 03:04:10;;;;;;;1.30;0.70;;;22.80;47.30;;;;;;5011018;28;20038;-73
2023/07/07 03:06:36;;;;;;;1.00;0.63;;;22.80;47.30;;;;;;5011299;28;20030;-72
2023/07/07 03:09:02;;;;;;;0.55;0.50;;;22.80;47.30;;;;;;5011273;28;20030;-73
2023/07/07 03:11:28;;;;;;;1.52;0.80;;;22.80;47.40;;;;;;5011281;28;20511;-73
2023/07/07 03:13:53;;;;;;;1.05;0.60;;;22.70;47.30;;;;;;5011092;28;20439;-72
2023/07/07 03:16:30;;;;;;;0.80;0.60;;;22.70;47.30;;;;;;5011141;28;20030;-72
2023/07/07 03:19:02;;;;;;;1.13;0.80;;;22.70;47.30;;;;;;5009839;28;20033;-72
2023/07/07 03:21:28;;;;;;;1.15;0.65;;;22.70;47.30;;;;;;5011199;28;20443;-72
2023/07/07 03:23:55;;;;;;;0.85;0.60;;;22.70;47.40;;;;;;5011038;28;20156;-72
2023/07/07 03:26:23;;;;;;;1.55;0.70;;;22.70;47.40;;;;;;5010889;28;20465;-73
2023/07/07 03:28:50;;;;;;;1.00;0.60;;;22.60;64.70;;;;;;5011083;28;20030;-72
2023/07/07 03:31:27;;;;;;;1.13;0.80;;;22.70;47.40;;;;;;5011321;28;20033;-75
2023/07/07 03:33:57;;;;;;;1.35;0.80;;;22.70;48.00;;;;;;5010633;28;20477;-75
2023/07/07 03:36:29;;;;;;;0.85;0.80;;;22.70;47.40;;;;;;4994469;28;20088;-75
2023/07/07 03:38:56;;;;;;;1.25;0.77;;;22.60;47.50;;;;;;5013115;28;20057;-75
2023/07/07 03:41:24;;;;;;;1.08;0.82;;;22.60;47.40;;;;;;4996900;28;20041;-72
2023/07/07 03:43:50;;;;;;;1.25;0.60;;;22.80;47.60;;;;;;4996893;28;20504;-72
2023/07/07 03:46:18;;;;;;;0.80;0.73;;;22.70;47.60;;;;;;5013022;28;20475;-72
2023/07/07 03:48:45;;;;;;;1.30;0.88;;;22.60;47.50;;;;;;4980684;28;20083;-72
2023/07/07 03:51:12;;;;;;;0.73;0.73;;;22.60;47.50;;;;;;5012933;28;20033;-72
2023/07/07 03:53:38;;;;;;;1.10;0.80;;;22.60;47.60;;;;;;4996938;28;20022;-72
2023/07/07 03:56:05;;;;;;;1.35;1.05;;;22.60;47.60;;;;;;4980397;28;20507;-72
2023/07/07 03:58:31;;;;;;;1.10;1.00;;;22.60;47.70;;;;;;4997280;28;20113;-74
2023/07/07 04:01:05;;;;;;;1.77;1.67;;;22.60;47.70;;;;;;5012801;28;20108;-75
2023/07/07 04:03:31;;;;;;;2.25;2.15;;;22.60;47.80;;;;;;4996715;28;20026;-75
2023/07/07 04:05:58;;;;;;;3.10;2.90;;;22.60;47.80;;;;;;4996322;28;20054;-75
2023/07/07 04:08:25;;;;;;;4.78;4.47;;;22.60;48.00;;;;;;4996442;28;20054;-75
2023/07/07 04:11:11;;;;;;;5.70;5.28;;;22.60;48.10;;;;;;4996920;28;20065;-74
2023/07/07 04:13:39;;;;;;;9.00;8.30;;;22.60;48.20;;;;;;5013841;28;20465;-75
2023/07/07 04:16:07;;;;;;;10.70;9.90;;;22.50;48.40;;;;;;4996370;28;20088;-74
2023/07/07 04:18:33;;;;;;;12.00;11.15;;;22.50;48.40;;;;;;5013895;28;20108;-76
2023/07/07 04:21:01;;;;;;;15.00;13.90;;;22.50;48.60;;;;;;5013735;28;20092;-76
2023/07/07 04:23:27;;;;;;;16.35;15.15;;;22.50;48.60;;;;;;5013906;28;20026;-75
2023/07/07 04:25:52;;;;;;;18.83;17.40;;;22.50;48.70;;;;;;5013888;28;20026;-76
2023/07/07 04:28:18;;;;;;;20.65;19.15;;;22.50;48.70;;;;;;5014276;28;20088;-73
2023/07/07 04:30:49;;;;;;;21.08;19.42;;;22.50;48.90;;;;;;5013722;28;20026;-73
2023/07/07 04:33:15;;;;;;;22.75;20.92;;;22.50;48.90;;;;;;5013870;28;20022;-74
2023/07/07 04:35:41;;;;;;;24.63;22.73;;;22.50;48.80;;;;;;5013924;28;20030;-73
2023/07/07 04:38:07;;;;;;;26.25;24.13;;;22.50;48.80;;;;;;5013686;28;20075;-72
2023/07/07 04:40:33;;;;;;;25.75;23.83;;;;;;;;;;5012123;28;20063;-71
2023/07/07 04:42:59;;;;;;;28.23;26.02;;;22.40;48.30;;;;;;5013486;28;20033;-72
2023/07/07 04:45:24;;;;;;;27.02;24.92;;;22.50;48.90;;;;;;5013992;28;20026;-72
2023/07/07 04:47:50;;;;;;;27.02;24.90;;;22.50;48.70;;;;;;5012560;28;20119;-73
2023/07/07 04:50:16;;;;;;;26.27;24.25;;;22.40;48.90;;;;;;5013390;28;20046;-72
2023/07/07 04:52:42;;;;;;;26.35;24.15;;;22.40;48.80;;;;;;5013453;28;20097;-72
2023/07/07 04:55:09;;;;;;;26.42;24.33;;;22.50;48.80;;;;;;5013724;28;20041;-73
2023/07/07 04:57:36;;;;;;;26.10;24.10;;;22.40;48.80;;;;;;5013148;28;20026;-72
2023/07/07 05:00:03;;;;;;;25.58;23.58;;;22.40;48.80;;;;;;5013394;28;20037;-72
2023/07/07 05:02:29;;;;;;;25.67;23.58;;;22.40;48.70;;;;;;5012929;28;20408;-72
2023/07/07 05:04:55;;;;;;;25.20;23.20;;;22.40;48.80;;;;;;5013205;28;20057;-73
2023/07/07 05:07:21;;;;;;;25.58;23.58;;;22.40;48.80;;;;;;5012747;28;20056;-72
2023/07/07 05:09:47;;;;;;;24.98;23.05;;;22.40;48.80;;;;;;5012885;28;20488;-72
2023/07/07 05:12:13;;;;;;;23.08;21.25;;;22.40;48.90;;;;;;5013037;28;20048;-72
2023/07/07 05:14:39;;;;;;;23.08;21.25;;;22.40;48.70;;;;;;5013145;28;20105;-73
2023/07/07 05:17:05;;;;;;;24.10;22.02;;;22.40;48.70;;;;;;5012931;28;20034;-73
2023/07/07 05:19:31;;;;;;;24.55;22.60;;;22.40;49.30;;;;;;5012801;28;20030;-72
2023/07/07 05:21:58;;;;;;;21.35;19.75;;;22.40;48.70;;;;;;5013030;28;20476;-73
2023/07/07 05:24:24;;;;;;;20.40;18.80;;;22.40;49.40;;;;;;5013135;28;20061;-75
2023/07/07 05:26:49;;;;;;;21.27;19.60;;;22.30;48.70;;;;;;5012605;28;20057;-76
2023/07/07 05:29:15;;;;;;;21.67;19.88;;;22.40;48.90;;;;;;5012525;28;20259;-76
2023/07/07 05:31:41;;;;;;;20.90;19.27;;;22.40;48.90;;;;;;5012740;28;20295;-77
2023/07/07 05:34:07;;;;;;;20.13;18.52;;;22.30;48.80;;;;;;5012866;28;20456;-77
2023/07/07 05:36:33;;;;;;;20.05;18.45;;;22.30;48.90;;;;;;5012387;28;20050;-73
2023/07/07 05:38:59;;;;;;;19.30;17.80;;;22.30;48.90;;;;;;5011243;28;20068;-75
2023/07/07 05:41:24;;;;;;;17.27;15.93;;;22.40;49.00;;;;;;5010817;28;20098;-74
2023/07/07 05:43:50;;;;;;;17.40;16.00;;;22.40;48.90;;;;;;5012231;28;20109;-77
2023/07/07 05:46:18;;;;;;;16.02;14.73;;;22.40;48.80;;;;;;5012132;28;20109;-75
2023/07/07 05:48:44;;;;;;;15.95;14.63;;;22.40;48.70;;;;;;5012102;28;20022;-74
2023/07/07 05:51:15;;;;;;;16.13;14.82;;;22.40;48.70;;;;;;5011083;28;20030;-74
2023/07/07 05:53:43;;;;;;;14.93;13.73;;;22.40;49.40;;;;;;5012580;28;20014;-76
2023/07/07 05:56:24;;;;;;;13.20;12.13;;;22.40;48.70;;;;;;5012591;28;20116;-75
2023/07/07 05:58:51;;;;;;;13.63;12.52;;;22.30;48.70;;;;;;5012153;28;20029;-75
2023/07/07 06:01:17;;;;;;;12.48;11.48;;;22.00;66.30;;;;;;5011927;28;20034;-76
2023/07/07 06:03:44;;;;;;;12.73;11.70;;;22.30;48.70;;;;;;5012043;28;20022;-74
2023/07/07 06:06:11;;;;;;;11.27;10.38;;;22.30;48.70;;;;;;5011913;28;20054;-73
2023/07/07 06:08:39;;;;;;;11.05;10.25;;;22.30;48.70;;;;;;5012105;28;20556;-73
2023/07/07 06:11:06;;;;;;;11.77;10.77;;;22.40;48.80;;;;;;5012224;28;20022;-72
2023/07/07 06:13:32;;;;;;;9.82;9.02;;;22.30;48.80;;;;;;5011949;28;20349;-72
2023/07/07 06:15:59;;;;;;;10.50;9.68;;;22.30;48.70;;;;;;5011773;28;20504;-72
2023/07/07 06:18:25;;;;;;;9.60;8.90;;;22.40;48.80;;;;;;5011931;28;20037;-72
2023/07/07 06:21:00;;;;;;;9.98;9.18;;;22.40;48.90;;;;;;5012323;28;20048;-72
2023/07/07 06:23:27;;;;;;;8.82;8.13;;;22.40;48.90;;;;;;5011957;28;20108;-73
2023/07/07 06:25:53;;;;;;;8.00;7.40;;;22.40;48.80;;;;;;4994149;28;20062;-72
2023/07/07 06:28:20;;;;;;;7.40;6.80;;;22.30;48.80;;;;;;4994251;28;20053;-72
2023/07/07 06:30:50;;;;;;;8.07;7.38;;;22.40;48.80;;;;;;4994050;28;20045;-72
2023/07/07 06:33:16;;;;;;;;;;;22.40;48.90;;;;;;5010856;28;20061;-74
2023/07/07 06:35:43;;;;;;;6.80;6.20;;;22.40;48.90;;;;;;5010270;28;19909;-74
2023/07/07 06:38:09;;;;;;;6.28;5.78;;;22.40;49.00;;;;;;4994187;28;20038;-74
2023/07/07 06:40:35;;;;;;;6.55;6.00;;;22.40;48.90;;;;;;4993978;28;20029;-75
2023/07/07 06:43:01;;;;;;;6.20;5.70;;;22.40;49.00;;;;;;4994337;28;20424;-74
2023/07/07 06:45:28;;;;;;;5.57;5.18;;;22.30;49.00;;;;;;4994290;28;20104;-74
2023/07/07 06:47:54;;;;;;;5.28;4.88;;;22.40;48.90;;;;;;5010413;28;20041;-75
2023/07/07 06:50:32;;;;;;;5.25;4.85;;;22.40;49.20;;;;;;4994435;28;20026;-73
2023/07/07 06:52:58;;;;;;;4.63;4.30;;;22.40;49.00;;;;;;5010318;28;20053;-73
2023/07/07 06:55:25;;;;;;;4.63;4.18;;;22.40;49.10;;;;;;4993921;28;20034;-73
2023/07/07 06:57:51;;;;;;;5.30;3.60;;;22.40;49.10;;;;;;5010426;28;20088;-71
2023/07/07 07:00:18;;;;;;;4.32;4.03;;;22.40;49.20;;;;;;4993842;28;20542;-71
2023/07/07 07:02:45;;;;;;;3.78;3.47;;;22.40;49.10;;;;;;5010073;28;20052;-72
2023/07/07 07:05:11;;;;;;;3.38;3.17;;;22.40;49.20;;;;;;5010022;28;20053;-73
2023/07/07 07:07:37;;;;;;;3.63;3.33;;;22.40;49.30;;;;;;4993825;28;20522;-73
2023/07/07 07:10:04;;;;;;;3.10;2.63;;;22.40;49.20;;;;;;5009958;28;20064;-72
2023/07/07 07:12:31;;;;;;;3.00;2.80;;;22.40;49.20;;;;;;5013175;28;20335;-73
2023/07/07 07:14:57;;;;;;;3.13;2.80;;;22.40;49.20;;;;;;4997784;28;20133;-72
2023/07/07 07:17:24;;;;;;;2.90;2.70;;;22.40;49.30;;;;;;4998034;28;20022;-76
2023/07/07 07:19:51;;;;;;;2.50;2.30;;;22.40;49.20;;;;;;4997363;28;20022;-76
2023/07/07 07:22:17;;;;;;;2.65;2.45;;;22.40;49.40;;;;;;5013610;28;20622;-75
2023/07/07 07:24:42;;;;;;;3.05;2.75;;;22.40;49.20;;;;;;4980930;28;20034;-77
2023/07/07 07:27:08;;;;;;;2.60;2.40;;;22.50;49.30;;;;;;4997067;28;20046;-74
2023/07/07 07:29:34;;;;;;;2.30;2.10;;;22.40;49.50;;;;;;4997096;28;20029;-74
2023/07/07 07:32:00;;;;;;;2.20;2.00;;;22.50;49.50;;;;;;5013303;28;20034;-75
2023/07/07 07:34:28;;;;;;;1.67;1.58;;;22.50;49.50;;;;;;4996977;28;20142;-75
2023/07/07 07:36:56;;;;;;;2.13;1.80;;;22.50;49.50;;;;;;4996715;28;20030;-79
2023/07/07 07:39:23;;;;;;;2.33;1.90;;;22.50;49.40;;;;;;5013294;28;20440;-74
2023/07/07 07:41:51;;;;;;;1.70;1.50;;;22.50;49.50;;;;;;5014347;28;20061;-77
2023/07/07 07:44:18;;;;;;;1.92;1.83;;;22.60;49.50;;;;;;5014285;28;20026;-76
2023/07/07 07:46:46;;;;;;;2.45;1.55;;;22.50;49.60;;;;;;5014493;28;20022;-76
2023/07/07 07:49:12;;;;;;;2.20;1.30;;;22.50;49.80;;;;;;5014513;28;20048;-75
2023/07/07 07:51:39;;;;;;;3.22;1.30;;;22.60;49.60;;;;;;5014323;28;20465;-76
2023/07/07 07:54:11;;;;;;;3.60;1.13;;;22.60;49.60;;;;;;5014155;28;20036;-76
2023/07/07 07:56:38;;;;;;;2.17;1.40;;;22.60;49.70;;;;;;5014584;28;20026;-75
2023/07/07 07:59:07;;;;;;;1.73;1.45;;;22.60;49.70;;;;;;5014556;28;20042;-73
2023/07/07 08:01:33;;;;;;;1.90;1.20;;;22.60;49.70;;;;;;5014072;28;20034;-75
2023/07/07 08:03:59;;;;;;;2.15;1.48;;;22.70;49.70;;;;;;5014000;28;20067;-75
2023/07/07 08:06:26;;;;;;;3.95;1.02;;;22.70;49.70;;;;;;5014305;28;20516;-73
2023/07/07 08:08:53;;;;;;;1.85;1.40;;;22.70;49.70;;;;;;5013620;28;20026;-76
2023/07/07 08:11:48;;;;;;;3.47;1.20;;;22.80;49.70;;;;;;5013589;28;20048;-72
2023/07/07 08:14:17;;;;;;;1.30;1.00;;;22.80;49.90;;;;;;5013633;28;20101;-77
2023/07/07 08:16:49;;;;;;;1.60;1.38;;;22.90;49.50;;;;;;5013767;28;20030;-74
2023/07/07 08:19:15;;;;;;;2.72;1.48;;;22.80;50.00;;;;;;5013836;28;20064;-74
2023/07/07 08:21:41;;;;;;;3.75;1.58;;;22.90;50.30;;;;;;5013798;28;20354;-74
2023/07/07 08:24:08;;;;;;;5.32;1.50;;;22.80;50.50;;;;;;5012618;28;20018;-74
2023/07/07 08:26:34;;;;;;;1.35;0.90;;;22.80;50.70;;;;;;5013450;28;20036;-74
2023/07/07 08:29:00;;;;;;;2.65;1.48;;;22.90;50.90;;;;;;5013471;28;20018;-74
2023/07/07 08:31:25;;;;;;;2.28;1.23;;;22.90;50.90;;;;;;5013432;28;20101;-74
2023/07/07 08:33:52;;;;;;;2.42;1.10;;;22.90;51.00;;;;;;5013972;28;20017;-74
2023/07/07 08:36:17;;;;;;;3.33;1.20;;;22.90;51.30;;;;;;5013146;28;20034;-74
2023/07/07 08:38:43;;;;;;;1.67;1.15;;;22.90;51.30;;;;;;5012063;28;20385;-73
2023/07/07 08:41:09;;;;;;;1.48;1.00;;;23.00;51.30;;;;;;5013124;28;20491;-73
2023/07/07 08:43:37;;;;;;;2.05;1.23;;;23.00;51.20;;;;;;5013372;28;20038;-74
2023/07/07 08:46:22;;;;;;;1.80;1.40;;;23.10;51.40;;;;;;5013384;28;20033;-73
2023/07/07 08:49:12;;;;;;;2.33;1.30;;;23.10;52.20;;;;;;5013353;28;20030;-73
2023/07/07 08:51:46;;;;;;;1.10;1.00;;;23.10;51.70;;;;;;5012979;28;20082;-73
2023/07/07 08:54:43;;;;;;;5.60;1.20;;;23.20;51.70;;;;;;5013136;28;20041;-73
2023/07/07 08:57:12;;;;;;;1.70;1.15;;;23.20;51.90;;;;;;5012716;28;20057;-72
2023/07/07 08:59:59;;;;;;;3.10;1.27;;;23.30;51.80;;;;;;5013083;28;20349;-74
2023/07/07 09:02:46;;;;;;;3.35;1.02;;;23.40;51.80;;;;;;5013101;28;20392;-75
2023/07/07 09:05:21;;;;;;;1.88;1.30;;;23.30;51.70;;;;;;5012826;28;20130;-74
2023/07/07 09:08:11;;;;;;;2.45;1.20;;;23.40;51.80;;;;;;5013072;28;20105;-74
2023/07/07 09:11:00;;;;;;;1.63;1.20;;;23.50;51.90;;;;;;5012698;28;20029;-75
2023/07/07 09:13:33;;;;;;;2.28;1.30;;;23.50;51.80;;;;;;5012775;28;20071;-75
2023/07/07 09:16:07;;;;;;;4.10;1.42;;;23.60;51.90;;;;;;5014036;28;20029;-78
2023/07/07 09:18:39;;;;;;;1.48;1.35;;;23.70;51.90;;;;;;5012585;28;20045;-76
2023/07/07 09:21:12;;;;;;;1.60;1.30;;;23.70;51.90;;;;;;5013016;28;20030;-73
2023/07/07 09:23:40;;;;;;;2.03;1.20;;;23.70;51.80;;;;;;5012801;28;20022;-74
2023/07/07 09:26:22;;;;;;;2.63;1.35;;;23.80;51.60;;;;;;5012372;28;20033;-74
2023/07/07 09:28:53;;;;;;;2.67;1.40;;;23.90;51.50;;;;;;5012746;28;20042;-74
2023/07/07 09:31:24;;;;;;;2.25;1.70;;;24.00;51.80;;;;;;5012352;28;20653;-74
2023/07/07 09:33:52;;;;;;;1.83;1.13;;;24.00;51.80;;;;;;5012309;28;20029;-75
2023/07/07 09:36:27;;;;;;;2.88;1.35;;;24.10;52.00;;;;;;5012285;28;20028;-76
2023/07/07 09:39:22;;;;;;;4.18;1.50;;;24.10;51.80;;;;;;5012285;28;20084;-75
2023/07/07 09:42:07;;;;;;;3.58;1.55;;;24.20;52.30;;;;;;4994754;28;20041;-75
2023/07/07 09:45:00;;;;;;;3.63;1.55;;;24.30;52.10;;;;;;5012084;28;20481;-74
2023/07/07 09:47:38;;;;;;;3.85;1.30;;;24.40;52.30;;;;;;5012239;28;20424;-77
2023/07/07 09:50:32;;;;;;;2.97;1.40;;;24.40;52.20;;;;;;5012023;28;20081;-76
2023/07/07 09:53:07;;;;;;;2.03;1.33;;;24.50;51.90;;;;;;5012215;28;20029;-75
2023/07/07 09:55:36;;;;;;;2.55;1.30;;;24.60;52.00;;;;;;5012036;28;20172;-75
2023/07/07 09:58:33;;;;;;;2.60;1.30;;;24.70;52.20;;;;;;5011864;28;20589;-77
2023/07/07 10:01:01;;;;;;;3.25;1.25;;;24.70;52.30;;;;;;5012063;28;20041;-76
2023/07/07 10:03:40;;;;;;;2.42;1.23;;;24.80;52.30;;;;;;5011787;28;20083;-77
2023/07/07 10:06:24;;;;;;;1.83;1.50;;;24.90;52.90;;;;;;5012065;28;20088;-76
2023/07/07 10:08:50;;;;;;;1.83;1.73;;;24.90;52.10;;;;;;5012541;28;20033;-78
2023/07/07 10:11:46;;;;;;;1.60;1.50;;;25.00;52.00;;;;;;5011949;28;20022;-81
2023/07/07 10:14:13;;;;;;;3.85;1.65;;;25.10;52.00;;;;;;5010422;28;20018;-76
2023/07/07 10:16:46;;;;;;;1.88;1.23;;;25.10;52.00;;;;;;5011987;28;20392;-77
2023/07/07 10:19:14;;;;;;;2.28;1.20;;;25.20;52.30;;;;;;5012022;28;20508;-76
2023/07/07 10:21:42;;;;;;;1.77;1.50;;;25.30;52.70;;;;;;5011717;28;20037;-77
2023/07/07 10:24:13;;;;;;;2.45;1.30;;;25.40;51.80;;;;;;5011918;28;20100;-75
2023/07/07 10:26:46;;;;;;;2.35;1.90;;;25.40;51.90;;;;;;5011654;28;20026;-78
2023/07/07 10:29:21;;;;;;;1.63;1.17;;;25.50;51.70;;;;;;5010385;28;20029;-77
2023/07/07 10:31:47;;;;;;;3.83;1.50;;;25.60;51.60;;;;;;5011613;28;20033;-73
2023/07/07 10:34:35;;;;;;;2.22;1.52;;;25.60;51.70;;;;;;5011767;28;20061;-75
2023/07/07 10:37:00;;;;;;;1.90;1.50;;;25.70;51.70;;;;;;5011513;28;20353;-74
2023/07/07 10:39:31;;;;;;;1.85;1.30;;;25.80;51.90;;;;;;5011556;28;20033;-74
2023/07/07 10:41:57;;;;;;;2.10;1.60;;;25.80;51.80;;;;;;5011893;28;20121;-75
2023/07/07 10:44:27;;;;;;;1.50;1.40;;;25.90;52.30;;;;;;5011418;28;20357;-74
2023/07/07 10:46:53;;;;;;;2.13;1.33;;;26.00;51.60;;;;;;5010987;28;20337;-75
2023/07/07 10:49:24;;;;;;;1.88;1.40;;;26.10;51.50;;;;;;5011370;28;20026;-75
2023/07/07 10:51:49;;;;;;;1.88;1.40;;;26.10;51.50;;;;;;5011442;28;20018;-75
2023/07/07 10:54:22;;;;;;;1.77;1.35;;;26.10;51.40;;;;;;5011774;28;20061;-74
2023/07/07 10:56:54;;;;;;;2.03;1.48;;;26.30;51.50;;;;;;5011160;28;20022;-75
2023/07/07 10:59:44;;;;;;;1.75;1.40;;;26.30;51.30;;;;;;5011403;28;20490;-73
2023/07/07 11:02:40;;;;;;;1.58;1.35;;;26.40;51.40;;;;;;5011389;28;20033;-76
2023/07/07 11:05:20;;;;;;;1.73;1.33;;;26.50;51.60;;;;;;5011177;28;20092;-71
2023/07/07 11:08:16;;;;;;;1.63;1.52;;;26.60;51.30;;;;;;5011387;28;20388;-73
2023/07/07 11:11:07;;;;;;;1.95;1.67;;;26.70;50.90;;;;;;5000544;28;20092;-73
2023/07/07 11:13:52;;;;;;;1.80;1.45;;;26.70;51.00;;;;;;5011369;28;20026;-73
2023/07/07 11:16:36;;;;;;;1.90;1.40;;;26.80;51.00;;;;;;5011424;28;20041;-76
2023/07/07 11:19:25;;;;;;;1.77;1.35;;;26.90;50.90;;;;;;5011265;28;20026;-75
2023/07/07 11:22:24;;;;;;;1.45;1.30;;;27.00;51.20;;;;;;5011305;28;20565;-74
2023/07/07 11:25:00;;;;;;;1.95;1.40;;;27.10;50.70;;;;;;4967884;28;20038;-74
2023/07/07 11:27:49;;;;;;;2.35;1.70;;;27.20;50.50;;;;;;5011308;28;20120;-74
2023/07/07 11:30:43;;;;;;;4.93;1.53;;;27.20;50.50;;;;;;5010995;28;20022;-74
2023/07/07 11:33:29;;;;;;;1.65;1.30;;;27.30;50.60;;;;;;5010953;28;20041;-72
2023/07/07 11:36:25;;;;;;;3.05;1.40;;;27.40;50.10;;;;;;5010796;28;20488;-72
2023/07/07 11:39:49;;;;;;;1.52;1.42;;;27.40;50.50;;;;;;5010831;28;20034;-73
2023/07/07 11:42:40;;;;;;;2.08;1.60;;;27.50;50.50;;;;;;4902780;29;20072;-74
2023/07/07 11:45:09;;;;;;;1.75;1.58;;;27.60;50.10;;;;;;4931073;29;20434;-74
2023/07/07 11:47:57;;;;;;;2.60;1.55;;;27.70;50.00;;;;;;4994522;28;20037;-74
2023/07/07 11:50:47;;;;;;;1.92;1.48;;;27.70;50.10;;;;;;5010938;28;20530;-74
2023/07/07 11:53:28;;;;;;;2.17;1.48;;;27.80;50.00;;;;;;5011105;28;20494;-73
2023/07/07 11:56:09;;;;;;;2.78;1.70;;;27.90;50.50;;;;;;5010995;28;20037;-74
2023/07/07 11:58:50;;;;;;;2.40;1.67;;;27.60;49.80;;;;;;5013702;28;20040;-72
2023/07/07 12:01:25;;;;;;;3.22;1.73;;;28.30;66.10;;;;;;5014316;28;20046;-72
2023/07/07 12:04:05;;;;;;;1.88;1.52;;;28.10;49.90;;;;;;5014085;28;20022;-74
2023/07/07 12:06:39;;;;;;;2.25;1.83;;;28.20;49.60;;;;;;5014240;28;20026;-73
2023/07/07 12:09:20;;;;;;;2.42;1.80;;;28.30;49.80;;;;;;5014320;28;20064;-73
2023/07/07 12:12:04;;;;;;;3.50;1.65;;;28.30;49.90;;;;;;5014425;28;20432;-73
2023/07/07 12:14:39;;;;;;;2.28;1.60;;;28.40;49.40;;;;;;5013988;28;20097;-73
2023/07/07 12:17:09;;;;;;;1.52;1.42;;;28.40;49.50;;;;;;5012604;28;20471;-74
2023/07/07 12:19:41;;;;;;;2.40;2.03;;;28.50;49.70;;;;;;4997007;28;20029;-73
2023/07/07 12:22:18;;;;;;;1.20;1.10;;;28.60;49.40;;;;;;4996841;28;20100;-73
2023/07/07 12:24:56;;;;;;;1.92;1.20;;;28.70;49.60;;;;;;4996692;28;20026;-74
2023/07/07 12:27:32;;;;;;;1.92;1.60;;;28.40;64.70;;;;;;5013337;28;20041;-78
2023/07/07 12:30:00;;;;;;;1.45;1.35;;;28.80;49.50;;;;;;4996582;28;20037;-78
2023/07/07 12:32:26;;;;;;;1.38;1.27;;;28.80;49.30;;;;;;5012480;28;20314;-79
2023/07/07 12:35:16;;;;;;;3.05;1.50;;;28.90;49.10;;;;;;5013488;28;20037;-79
2023/07/07 12:37:43;;;;;;;1.95;1.70;;;28.90;48.90;;;;;;5013286;28;20060;-81
2023/07/07 12:40:09;;;;;;;1.63;1.52;;;29.00;49.20;;;;;;5013178;28;20022;-74
2023/07/07 12:42:37;;;;;;;2.13;1.38;;;29.10;49.30;;;;;;5013128;28;20060;-72
2023/07/07 12:45:09;;;;;;;1.40;1.30;;;29.10;49.00;;;;;;5013057;28;20076;-75
2023/07/07 12:47:40;;;;;;;3.53;1.88;;;29.20;49.00;;;;;;5013180;28;20041;-77
2023/07/07 12:50:27;;;;;;;2.67;1.55;;;29.20;48.60;;;;;;5012999;28;20087;-73
2023/07/07 12:52:58;;;;;;;1.60;1.40;;;29.30;48.70;;;;;;5013450;28;20377;-73
2023/07/07 12:55:29;;;;;;;1.88;1.52;;;29.30;48.50;;;;;;5013331;28;20420;-73
2023/07/07 12:58:00;;;;;;;1.63;1.40;;;29.40;48.60;;;;;;5013898;28;20402;-74
2023/07/07 13:00:37;;;;;;;1.42;1.20;;;29.40;48.80;;;;;;5013124;28;20045;-76
2023/07/07 13:03:09;;;;;;;1.30;1.20;;;29.50;48.90;;;;;;5013147;28;20033;-71
2023/07/07 13:05:44;;;;;;;1.33;1.23;;;29.50;48.60;;;;;;5012821;28;20043;-72
2023/07/07 13:08:10;;;;;;;3.05;1.50;;;29.60;48.70;;;;;;4995158;28;20499;-77